Petrolia, Illinois
Current Conditions -  °F | °C
As of 2:55 AM on Saturday 25 Oct 2014 (Local Time) from KAJG Reporting Station
Overcast Overcast  
Wind Chill: 61°   Ceiling: 4500
Heat Index: 61°   Visibility: 10mi
Dew Point: 54°   Wind: 3mph
Humidity: 77%   Direction: 210°SSW
Pressure: 30"   Gusts: NA
Location:  38.6498°N, 87.844°W
Report Text: KAJG 250755Z AUTO 21003KT 10SM BKN045 OVC050 16/12 A3000 RMK AO2
Loading
Personal Weather Stations






























Interactive Weather Map
Tropical Storm Tracking
New forecast layout! Learn more

10-Day Weather Forecast

Advertisements
Track Severe Weather on mobile